createdAt,value
2022-11-08T00:00:44.072Z,19.20
2022-11-08T00:03:10.906Z,19.20
2022-11-08T00:05:56.569Z,19.20
2022-11-08T00:08:42.250Z,19.20
2022-11-08T00:11:28.293Z,19.20
2022-11-08T00:14:01.471Z,19.20
2022-11-08T00:16:29.271Z,19.20
2022-11-08T00:18:55.989Z,19.20
2022-11-08T00:21:22.610Z,19.20
2022-11-08T00:23:50.949Z,19.20
2022-11-08T00:26:18.177Z,19.10
2022-11-08T00:28:45.513Z,19.10
2022-11-08T00:31:12.515Z,19.10
2022-11-08T00:33:40.301Z,19.10
2022-11-08T00:36:07.061Z,19.10
2022-11-08T00:38:33.686Z,19.10
2022-11-08T00:41:00.309Z,19.10
2022-11-08T00:43:30.005Z,19.10
2022-11-08T00:45:56.852Z,19.10
2022-11-08T00:48:25.865Z,19.10
2022-11-08T00:50:57.106Z,19.10
2022-11-08T00:53:24.356Z,19.10
2022-11-08T00:56:03.729Z,19.10
2022-11-08T00:58:30.469Z,19.10
2022-11-08T01:00:57.653Z,19.10
2022-11-08T01:03:25.374Z,19.10
2022-11-08T01:05:56.141Z,19.10
2022-11-08T01:08:23.996Z,19.10
2022-11-08T01:10:51.874Z,19.10
2022-11-08T01:13:20.454Z,19.10
2022-11-08T01:15:50.723Z,19.10
2022-11-08T01:18:18.789Z,19.10
2022-11-08T01:20:48.500Z,19.10
2022-11-08T01:23:16.314Z,19.10
2022-11-08T01:25:46.177Z,19.10
2022-11-08T01:28:13.844Z,19.10
2022-11-08T01:30:42.509Z,19.10
2022-11-08T01:33:09.799Z,19.10
2022-11-08T01:35:37.371Z,19.10
2022-11-08T01:38:06.273Z,19.00
2022-11-08T01:40:41.614Z,19.10
2022-11-08T01:43:29.413Z,19.10
2022-11-08T01:46:19.398Z,19.10
2022-11-08T01:48:58.998Z,19.00
2022-11-08T01:51:40.730Z,19.10
2022-11-08T01:54:10.974Z,19.00
2022-11-08T01:56:41.199Z,19.00
2022-11-08T01:59:10.271Z,19.10
2022-11-08T02:01:37.322Z,19.00
2022-11-08T02:04:04.632Z,19.00
2022-11-08T02:06:35.602Z,19.00
2022-11-08T02:09:05.189Z,19.30
2022-11-08T02:11:33.513Z,19.00
2022-11-08T02:14:04.821Z,19.00
2022-11-08T02:16:32.191Z,19.00
2022-11-08T02:18:59.429Z,19.00
2022-11-08T02:21:38.754Z,19.00
2022-11-08T02:24:10.376Z,19.00
2022-11-08T02:26:41.449Z,19.00
2022-11-08T02:29:29.625Z,19.00
2022-11-08T02:31:57.486Z,19.00
2022-11-08T02:34:35.209Z,19.00
2022-11-08T02:37:03.102Z,19.00
2022-11-08T02:39:30.003Z,19.00
2022-11-08T02:41:56.581Z,19.00
2022-11-08T02:44:23.163Z,19.00
2022-11-08T02:46:50.265Z,19.00
2022-11-08T02:49:16.921Z,19.00
2022-11-08T02:51:43.638Z,19.00
2022-11-08T02:54:10.622Z,19.00
2022-11-08T02:56:37.713Z,19.00
2022-11-08T02:59:06.153Z,19.00
2022-11-08T03:01:33.107Z,19.00
2022-11-08T03:04:00.512Z,19.00
2022-11-08T03:06:28.695Z,19.00
2022-11-08T03:08:55.364Z,19.00
2022-11-08T03:11:22.642Z,19.00
2022-11-08T03:13:51.150Z,18.90
2022-11-08T03:16:17.989Z,18.90
2022-11-08T03:18:45.017Z,19.00
2022-11-08T03:21:12.369Z,19.00
2022-11-08T03:23:39.298Z,18.90
2022-11-08T03:26:06.604Z,18.90
2022-11-08T03:28:33.885Z,19.00
2022-11-08T03:31:02.297Z,19.00
2022-11-08T03:33:30.267Z,19.00
2022-11-08T03:35:57.040Z,18.90
2022-11-08T03:38:23.669Z,19.00
2022-11-08T03:40:50.323Z,19.00
2022-11-08T03:43:17.059Z,18.90
2022-11-08T03:45:45.633Z,18.90
2022-11-08T03:48:13.517Z,18.90
2022-11-08T03:50:40.797Z,18.90
2022-11-08T03:53:07.507Z,18.90
2022-11-08T03:55:34.115Z,18.90
2022-11-08T03:58:00.768Z,18.90
2022-11-08T04:00:29.244Z,18.90
2022-11-08T04:03:02.863Z,18.90
2022-11-08T04:05:32.024Z,18.90
2022-11-08T04:08:00.492Z,18.90
2022-11-08T04:10:27.337Z,18.90
2022-11-08T04:13:12.479Z,18.90
2022-11-08T04:15:39.388Z,18.90
2022-11-08T04:18:24.701Z,18.90
2022-11-08T04:21:10.081Z,18.90
2022-11-08T04:23:37.322Z,18.90
2022-11-08T04:26:07.067Z,18.90
2022-11-08T04:28:35.599Z,18.90
2022-11-08T04:31:05.478Z,18.90
2022-11-08T04:33:32.329Z,18.90
2022-11-08T04:36:07.563Z,18.90
2022-11-08T04:38:34.296Z,18.90
2022-11-08T04:41:06.442Z,18.90
2022-11-08T04:43:33.894Z,18.90
2022-11-08T04:46:06.254Z,18.80
2022-11-08T04:48:33.025Z,18.90
2022-11-08T04:51:08.514Z,18.90
2022-11-08T04:53:35.218Z,18.90
2022-11-08T04:56:16.427Z,18.90
2022-11-08T04:58:48.996Z,18.90
2022-11-08T05:01:18.383Z,18.90
2022-11-08T05:03:46.440Z,18.90
2022-11-08T05:06:18.705Z,18.80
2022-11-08T05:08:45.767Z,18.90
2022-11-08T05:11:15.061Z,18.90
2022-11-08T05:16:15.917Z,18.90
2022-11-08T05:18:43.069Z,18.90
2022-11-08T05:21:30.708Z,18.90
2022-11-08T05:23:58.269Z,18.80
2022-11-08T05:26:25.682Z,18.90
2022-11-08T05:28:52.295Z,18.90
2022-11-08T05:31:18.925Z,18.90
2022-11-08T05:33:45.745Z,18.90
2022-11-08T05:36:13.931Z,18.80
2022-11-08T05:38:41.334Z,18.90
2022-11-08T05:41:16.211Z,18.90
2022-11-08T05:43:44.770Z,18.90
2022-11-08T05:46:11.381Z,18.90
2022-11-08T05:48:38.012Z,18.90
2022-11-08T05:51:04.667Z,18.90
2022-11-08T05:53:31.586Z,18.80
2022-11-08T05:56:02.305Z,18.90
2022-11-08T05:58:30.812Z,18.90
2022-11-08T06:01:02.556Z,18.90
2022-11-08T06:03:29.985Z,18.80
2022-11-08T06:06:02.167Z,18.90
2022-11-08T06:08:28.865Z,18.90
2022-11-08T06:11:01.086Z,18.90
2022-11-08T06:13:28.065Z,18.90
2022-11-08T06:15:54.789Z,18.90
2022-11-08T06:18:21.403Z,18.90
2022-11-08T06:20:47.990Z,18.90
2022-11-08T06:23:14.724Z,18.90
2022-11-08T06:25:46.443Z,18.90
2022-11-08T06:28:14.531Z,18.90
2022-11-08T06:30:41.587Z,18.90
2022-11-08T06:33:08.248Z,18.90
2022-11-08T06:35:36.028Z,19.00
2022-11-08T06:38:08.182Z,19.00
2022-11-08T06:40:37.797Z,19.00
2022-11-08T06:43:04.818Z,19.00
2022-11-08T06:45:32.083Z,19.10
2022-11-08T06:48:03.712Z,19.10
2022-11-08T06:50:31.774Z,19.10
2022-11-08T06:52:59.980Z,19.20
2022-11-08T06:55:27.120Z,19.20
2022-11-08T06:57:54.145Z,19.20
2022-11-08T07:00:21.562Z,19.20
2022-11-08T07:02:59.346Z,19.20
2022-11-08T07:05:27.318Z,19.20
2022-11-08T07:07:54.600Z,19.20
2022-11-08T07:10:23.636Z,19.30
2022-11-08T07:13:05.699Z,19.30
2022-11-08T07:15:33.719Z,19.30
2022-11-08T07:18:05.601Z,19.40
2022-11-08T07:20:32.263Z,19.40
2022-11-08T07:22:59.703Z,19.40
2022-11-08T07:25:26.834Z,19.40
2022-11-08T07:28:01.956Z,19.40
2022-11-08T07:30:29.061Z,19.40
2022-11-08T07:32:56.608Z,19.40
2022-11-08T07:35:24.343Z,19.40
2022-11-08T07:37:51.071Z,19.40
2022-11-08T07:40:17.739Z,19.50
2022-11-08T07:43:10.198Z,19.40
2022-11-08T07:45:30.994Z,19.40
2022-11-08T07:48:08.060Z,19.40
2022-11-08T07:50:37.490Z,19.40
2022-11-08T07:53:04.157Z,19.50
2022-11-08T07:55:30.758Z,19.50
2022-11-08T07:58:03.076Z,19.50
2022-11-08T08:00:31.026Z,19.50
2022-11-08T08:03:01.795Z,19.50
2022-11-08T08:05:32.535Z,19.50
2022-11-08T08:08:00.422Z,19.30
2022-11-08T08:10:27.955Z,19.20
2022-11-08T08:12:55.871Z,19.20
2022-11-08T08:15:23.270Z,19.10
2022-11-08T08:17:49.885Z,19.20
2022-11-08T08:20:16.548Z,19.20
2022-11-08T08:22:47.988Z,19.20
2022-11-08T08:25:15.269Z,19.20
2022-11-08T08:27:47.255Z,19.20
2022-11-08T08:30:14.658Z,19.20
2022-11-08T08:32:41.336Z,19.20
2022-11-08T08:35:08.659Z,19.20
2022-11-08T08:37:35.321Z,19.20
2022-11-08T08:40:01.901Z,19.30
2022-11-08T08:42:29.009Z,19.30
2022-11-08T08:44:55.760Z,19.30
2022-11-08T08:47:22.340Z,19.30
2022-11-08T08:49:48.913Z,19.20
2022-11-08T08:52:15.496Z,19.30
2022-11-08T08:54:45.386Z,19.40
2022-11-08T08:57:12.046Z,19.50
2022-11-08T09:02:25.294Z,19.60
2022-11-08T09:04:51.888Z,19.50
2022-11-08T09:07:18.505Z,19.60
2022-11-08T09:09:45.181Z,19.60
2022-11-08T09:12:13.551Z,19.60
2022-11-08T09:14:41.308Z,19.60
2022-11-08T09:17:07.992Z,19.70
2022-11-08T09:19:34.611Z,19.60
2022-11-08T09:22:01.433Z,19.60
2022-11-08T09:24:28.119Z,19.70
2022-11-08T09:26:54.696Z,19.70
2022-11-08T09:29:21.520Z,19.70
2022-11-08T09:31:49.424Z,19.70
2022-11-08T09:34:19.033Z,19.70
2022-11-08T09:36:48.346Z,19.60
2022-11-08T09:39:15.068Z,19.70
2022-11-08T09:42:18.740Z,19.70
2022-11-08T09:45:10.272Z,19.70
2022-11-08T09:47:39.725Z,19.70
2022-11-08T09:50:22.510Z,19.70
2022-11-08T09:53:00.724Z,19.70
2022-11-08T09:55:36.117Z,19.70
2022-11-08T09:58:18.833Z,19.70
2022-11-08T10:00:45.792Z,19.70
2022-11-08T10:03:17.455Z,19.60
2022-11-08T10:05:50.561Z,19.70
2022-11-08T10:08:28.683Z,19.70
2022-11-08T10:11:07.200Z,19.70
2022-11-08T10:13:54.590Z,19.70
2022-11-08T10:16:36.672Z,19.70
2022-11-08T10:19:06.023Z,19.70
2022-11-08T10:21:59.440Z,19.70
2022-11-08T10:24:44.110Z,19.70
2022-11-08T10:27:21.012Z,19.70
2022-11-08T10:29:53.901Z,19.70
2022-11-08T10:32:22.972Z,19.70
2022-11-08T10:34:56.061Z,19.60
2022-11-08T10:37:24.036Z,19.60
2022-11-08T10:40:00.177Z,19.70
2022-11-08T10:42:45.864Z,19.70
2022-11-08T10:45:12.784Z,19.70
2022-11-08T10:47:40.423Z,19.70
2022-11-08T10:50:22.545Z,19.70
2022-11-08T10:52:59.092Z,19.70
2022-11-08T10:55:38.308Z,19.70
2022-11-08T10:58:28.704Z,19.70
2022-11-08T11:01:04.705Z,19.70
2022-11-08T11:03:32.106Z,19.70
2022-11-08T11:06:04.618Z,19.70
2022-11-08T11:08:32.633Z,19.70
2022-11-08T11:11:38.288Z,19.70
2022-11-08T11:14:22.050Z,19.70
2022-11-08T11:17:02.559Z,19.70
2022-11-08T11:19:30.133Z,19.70
2022-11-08T11:22:08.247Z,19.70
2022-11-08T11:24:36.831Z,19.70
2022-11-08T11:27:06.848Z,19.70
2022-11-08T11:29:36.705Z,19.70
2022-11-08T11:32:22.208Z,19.80
2022-11-08T11:35:00.471Z,19.80
2022-11-08T11:37:50.226Z,19.80
2022-11-08T11:40:26.054Z,19.80
2022-11-08T11:43:11.027Z,19.80
2022-11-08T11:46:04.477Z,19.80
2022-11-08T11:48:36.290Z,19.80
2022-11-08T11:51:03.041Z,19.80
2022-11-08T11:53:39.784Z,19.80
2022-11-08T11:56:19.715Z,19.80
2022-11-08T11:58:58.256Z,19.90
2022-11-08T12:01:50.792Z,19.90
2022-11-08T12:04:48.398Z,19.90
2022-11-08T12:07:15.391Z,19.80
2022-11-08T12:09:42.754Z,19.80
2022-11-08T12:12:09.604Z,19.80
2022-11-08T12:15:07.745Z,19.80
2022-11-08T12:17:59.812Z,19.80
2022-11-08T12:21:02.778Z,19.80
2022-11-08T12:24:04.706Z,19.90
2022-11-08T12:27:30.581Z,19.90
2022-11-08T12:30:12.389Z,19.80
2022-11-08T12:32:53.353Z,19.90
2022-11-08T12:35:40.464Z,19.90
2022-11-08T12:59:26.273Z,19.80
2022-11-08T13:01:54.751Z,19.80
2022-11-08T13:08:03.042Z,19.80
2022-11-08T13:13:56.845Z,19.80
2022-11-08T13:16:28.956Z,19.80
2022-11-08T13:19:01.318Z,19.80
2022-11-08T13:21:28.014Z,19.80
2022-11-08T13:24:43.027Z,19.80
2022-11-08T13:27:23.447Z,19.40
2022-11-08T13:29:51.758Z,19.80
2022-11-08T13:32:31.505Z,19.80
2022-11-08T13:35:12.448Z,19.80
2022-11-08T13:37:53.668Z,19.80
2022-11-08T13:40:57.812Z,19.80
2022-11-08T13:43:36.250Z,19.80
2022-11-08T13:46:27.019Z,19.80
2022-11-08T13:49:03.571Z,19.80
2022-11-08T13:51:34.109Z,19.80
2022-11-08T13:54:03.184Z,19.80
2022-11-08T13:56:50.851Z,19.80
2022-11-08T13:59:32.922Z,19.70
2022-11-08T14:02:12.833Z,19.80
2022-11-08T14:04:41.125Z,19.80
2022-11-08T14:07:25.846Z,19.80
2022-11-08T14:10:42.072Z,19.80
2022-11-08T14:13:23.365Z,19.80
2022-11-08T14:15:58.336Z,19.80
2022-11-08T14:18:29.251Z,19.80
2022-11-08T14:20:56.591Z,19.80
2022-11-08T14:23:29.805Z,19.80
2022-11-08T14:26:00.463Z,19.80
2022-11-08T14:28:44.228Z,19.80
2022-11-08T14:31:32.116Z,19.80
2022-11-08T14:34:00.313Z,19.80
2022-11-08T14:36:29.882Z,19.80
2022-11-08T14:39:02.980Z,19.80
2022-11-08T14:41:32.142Z,19.80
2022-11-08T14:44:01.499Z,19.70
2022-11-08T14:46:35.568Z,19.80
2022-11-08T14:49:14.824Z,19.80
2022-11-08T14:51:42.340Z,19.80
2022-11-08T14:54:17.980Z,19.70
2022-11-08T14:56:45.099Z,19.80
2022-11-08T14:59:13.255Z,19.80
2022-11-08T15:01:43.257Z,19.80
2022-11-08T15:04:20.273Z,19.90
2022-11-08T15:06:57.869Z,19.80
2022-11-08T15:09:24.453Z,19.80
2022-11-08T15:11:54.993Z,19.70
2022-11-08T15:14:25.265Z,19.70
2022-11-08T15:17:02.605Z,19.70
2022-11-08T15:19:46.507Z,19.70
2022-11-08T15:22:33.706Z,19.80
2022-11-08T15:25:39.960Z,19.80
2022-11-08T15:28:21.697Z,19.90
2022-11-08T15:30:55.426Z,19.90
2022-11-08T15:33:24.166Z,19.90
2022-11-08T15:35:51.416Z,19.90
2022-11-08T15:38:26.772Z,20.00
2022-11-08T15:40:55.717Z,20.00
2022-11-08T15:43:31.225Z,20.00
2022-11-08T15:45:59.532Z,20.00
2022-11-08T15:48:27.636Z,20.00
2022-11-08T15:50:56.673Z,20.00
2022-11-08T15:53:24.907Z,20.00
2022-11-08T15:56:01.409Z,20.00
2022-11-08T15:58:30.299Z,20.00
2022-11-08T16:00:58.561Z,20.00
2022-11-08T16:03:25.522Z,20.00
2022-11-08T16:05:52.297Z,20.00
2022-11-08T16:08:21.129Z,20.00
2022-11-08T16:10:53.524Z,20.00
2022-11-08T16:13:38.698Z,19.90
2022-11-08T16:16:12.180Z,19.90
2022-11-08T16:18:39.691Z,19.90
2022-11-08T16:21:06.669Z,20.00
2022-11-08T16:23:33.297Z,20.00
2022-11-08T16:26:00.868Z,20.00
2022-11-08T16:28:29.968Z,20.00
2022-11-08T16:30:56.836Z,20.00
2022-11-08T16:33:29.525Z,20.00
2022-11-08T16:36:09.475Z,20.00
2022-11-08T16:38:37.170Z,20.00
2022-11-08T16:41:04.854Z,20.00
2022-11-08T16:43:31.701Z,20.00
2022-11-08T16:46:06.328Z,19.90
2022-11-08T16:48:36.338Z,19.90
2022-11-08T16:51:05.647Z,19.90
2022-11-08T16:53:32.864Z,20.00
2022-11-08T16:55:59.586Z,20.00
2022-11-08T16:58:27.900Z,19.90
2022-11-08T17:00:55.704Z,19.90
2022-11-08T17:03:25.207Z,19.90
2022-11-08T17:05:53.731Z,19.90
2022-11-08T17:08:21.072Z,19.90
2022-11-08T17:10:49.620Z,19.90
2022-11-08T17:13:18.323Z,19.90
2022-11-08T17:15:45.830Z,19.90
2022-11-08T17:18:14.941Z,19.90
2022-11-08T17:20:42.317Z,19.90
2022-11-08T17:23:10.082Z,19.90
2022-11-08T17:25:39.773Z,19.90
2022-11-08T17:28:06.526Z,19.80
2022-11-08T17:30:33.142Z,19.80
2022-11-08T17:32:59.786Z,19.70
2022-11-08T17:35:26.438Z,19.70
2022-11-08T17:37:53.626Z,19.70
2022-11-08T17:40:20.456Z,19.70
2022-11-08T17:42:47.099Z,19.70
2022-11-08T17:45:13.995Z,19.80
2022-11-08T17:47:40.708Z,19.70
2022-11-08T17:50:09.898Z,19.80
2022-11-08T17:52:36.916Z,19.70
2022-11-08T17:55:04.271Z,19.80
2022-11-08T17:57:31.014Z,19.80
2022-11-08T17:59:58.241Z,19.80
2022-11-08T18:02:25.366Z,19.80
2022-11-08T18:04:52.116Z,19.80
2022-11-08T18:07:18.937Z,19.80
2022-11-08T18:09:45.638Z,19.80
2022-11-08T18:12:12.312Z,19.80
2022-11-08T18:14:40.712Z,19.80
2022-11-08T18:17:07.772Z,19.80
2022-11-08T18:19:34.712Z,19.80
2022-11-08T18:22:04.420Z,19.80
2022-11-08T18:24:31.144Z,19.90
2022-11-08T18:26:57.953Z,19.80
2022-11-08T18:29:24.597Z,19.90
2022-11-08T18:31:51.299Z,19.90
2022-11-08T18:34:21.023Z,19.90
2022-11-08T18:36:49.626Z,19.90
2022-11-08T18:39:19.430Z,19.80
2022-11-08T18:41:47.533Z,19.90
2022-11-08T18:44:16.798Z,19.90
2022-11-08T18:46:44.112Z,19.80
2022-11-08T18:49:11.910Z,19.80
2022-11-08T18:51:39.134Z,19.90
2022-11-08T18:54:05.876Z,19.90
2022-11-08T18:56:33.450Z,19.90
2022-11-08T18:59:00.177Z,19.90
2022-11-08T19:01:27.383Z,19.90
2022-11-08T19:03:54.282Z,19.90
2022-11-08T19:06:20.976Z,19.90
2022-11-08T19:08:47.927Z,19.90
2022-11-08T19:11:20.393Z,19.90
2022-11-08T19:13:50.142Z,20.00
2022-11-08T19:16:19.868Z,20.00
2022-11-08T19:18:49.155Z,20.00
2022-11-08T19:21:17.892Z,19.90
2022-11-08T19:23:45.936Z,19.90
2022-11-08T19:26:17.173Z,19.90
2022-11-08T19:28:45.567Z,20.00
2022-11-08T19:31:18.823Z,20.00
2022-11-08T19:33:47.915Z,20.00
2022-11-08T19:36:17.504Z,20.00
2022-11-08T19:38:44.643Z,20.10
2022-11-08T19:41:14.238Z,20.10
2022-11-08T19:43:42.522Z,20.10
2022-11-08T19:46:14.437Z,20.10
2022-11-08T19:48:44.084Z,20.10
2022-11-08T19:51:32.480Z,20.10
2022-11-08T19:54:05.446Z,20.10
2022-11-08T19:57:02.394Z,20.10
2022-11-08T19:59:19.767Z,20.10
2022-11-08T20:01:46.904Z,20.10
2022-11-08T20:04:14.889Z,20.00
2022-11-08T20:06:41.929Z,20.00
2022-11-08T20:09:09.468Z,20.00
2022-11-08T20:11:37.880Z,20.00
2022-11-08T20:14:04.985Z,20.00
2022-11-08T20:16:39.415Z,20.00
2022-11-08T20:19:15.252Z,20.00
2022-11-08T20:21:45.590Z,20.00
2022-11-08T20:24:12.991Z,19.90
2022-11-08T20:26:41.158Z,19.80
2022-11-08T20:29:08.678Z,19.70
2022-11-08T20:31:36.143Z,19.70
2022-11-08T20:34:05.751Z,19.60
2022-11-08T20:36:35.296Z,19.60
2022-11-08T20:39:06.942Z,19.60
2022-11-08T20:41:35.379Z,19.60
2022-11-08T20:44:02.420Z,19.60
2022-11-08T20:46:29.561Z,19.60
2022-11-08T20:49:00.252Z,19.60
2022-11-08T20:51:28.690Z,19.50
2022-11-08T20:53:56.495Z,19.60
2022-11-08T20:56:23.842Z,19.50
2022-11-08T20:58:51.804Z,19.50
2022-11-08T21:01:20.910Z,19.50
2022-11-08T21:03:50.097Z,19.60
2022-11-08T21:06:19.725Z,19.50
2022-11-08T21:09:16.587Z,19.50
2022-11-08T21:11:36.775Z,19.50
2022-11-08T21:14:04.676Z,19.50
2022-11-08T21:16:42.296Z,19.50
2022-11-08T21:19:13.926Z,19.50
2022-11-08T21:21:40.683Z,19.50
2022-11-08T21:24:07.615Z,19.50
2022-11-08T21:26:36.442Z,19.50
2022-11-08T21:29:04.352Z,19.50
2022-11-08T21:31:30.990Z,19.40
2022-11-08T21:33:58.717Z,19.40
2022-11-08T21:36:27.001Z,19.40
2022-11-08T21:38:54.113Z,19.40
2022-11-08T21:41:21.140Z,19.40
2022-11-08T21:43:47.880Z,19.40
2022-11-08T21:46:23.377Z,19.40
2022-11-08T21:48:57.858Z,19.50
2022-11-08T21:51:24.879Z,19.50
2022-11-08T21:53:56.102Z,19.60
2022-11-08T21:56:24.965Z,19.60
2022-11-08T21:58:52.125Z,19.60
2022-11-08T22:01:19.380Z,19.60
2022-11-08T22:03:46.615Z,19.60
2022-11-08T22:06:13.326Z,19.70
2022-11-08T22:08:39.952Z,19.70
2022-11-08T22:11:06.617Z,19.70
2022-11-08T22:13:33.391Z,19.70
2022-11-08T22:16:00.051Z,19.70
2022-11-08T22:18:43.306Z,19.80
2022-11-08T22:21:31.749Z,19.70
2022-11-08T22:23:58.324Z,19.80
2022-11-08T22:26:24.936Z,19.80
2022-11-08T22:28:51.511Z,19.80
2022-11-08T22:31:18.818Z,19.80
2022-11-08T22:33:45.438Z,19.80
2022-11-08T22:36:12.038Z,19.80
2022-11-08T22:38:38.772Z,19.80
2022-11-08T22:41:05.715Z,19.80
2022-11-08T22:43:34.994Z,19.80
2022-11-08T22:46:01.740Z,19.80
2022-11-08T22:48:28.364Z,19.80
2022-11-08T22:50:55.004Z,19.80
2022-11-08T22:53:21.927Z,19.80
2022-11-08T22:55:48.685Z,19.80
2022-11-08T22:58:15.320Z,19.80
2022-11-08T23:00:42.575Z,19.80
2022-11-08T23:03:12.442Z,19.80
2022-11-08T23:05:39.152Z,19.80
2022-11-08T23:08:05.984Z,19.70
2022-11-08T23:10:32.565Z,19.60
2022-11-08T23:13:17.976Z,19.60
2022-11-08T23:16:03.566Z,19.50
2022-11-08T23:18:30.151Z,19.50
2022-11-08T23:21:15.519Z,19.50
2022-11-08T23:24:02.182Z,19.40
2022-11-08T23:26:47.532Z,19.40
2022-11-08T23:29:46.226Z,19.50
2022-11-08T23:32:12.853Z,19.40
2022-11-08T23:34:39.444Z,19.40
2022-11-08T23:37:06.131Z,19.40
2022-11-08T23:39:32.737Z,19.40
2022-11-08T23:42:17.943Z,19.40
2022-11-08T23:44:44.503Z,19.40
2022-11-08T23:47:11.071Z,19.40
2022-11-08T23:49:37.633Z,19.30
2022-11-08T23:52:04.359Z,19.40
2022-11-08T23:54:30.942Z,19.40
2022-11-08T23:56:57.513Z,19.40
2022-11-08T23:59:24.187Z,19.40
